• Join FlightAware (Why Join?)
  • Login
  • US Flag 
11:12AM EDT


 

Airport Tracker/Info


-or-


 

Live Flight TrackerFlight Track Log ✈ N606FT ✈ 07-Sep-2013 ✈ KMLB - F45

Flight Track Log - Related Links

Times and Time Zones

All times are in EDT time to prevent confusion due to time zone crossing. See the N606FT flight status page for this flight to view local times or setup timezone preferences in your user account.

Time Position Orientation Groundspeed Altitude Reporting Facility
EDT Latitude Longitude Course Direction KTS MPH feet Rate Location/Type
10:37AM 28.2667 -80.6333 163° South 105 121 3,600  Level Orlando TRACON
10:38AM 28.2333 -80.6333 180° South 97 112 3,500  Descending Orlando TRACON
10:39AM 28.2167 -80.6167 139° Southeast 103 119 3,600  Climbing Orlando TRACON
10:40AM 28.1833 -80.6167 180° South 103 119 3,600  Level Orlando TRACON
10:41AM 28.1500 -80.6000 156° South 101 116 3,600  Level Orlando TRACON
10:42AM 27.9435 -80.5911 163° South  Level Estimated
10:42AM 28.1333 -80.5833 139° Southeast 101 116 3,600  Level Orlando TRACON
10:43AM 28.1000 -80.5833 180° South 98 113 3,600  Level Orlando TRACON
10:44AM 28.0833 -80.5667 139° Southeast 108 124 3,600  Level Orlando TRACON
10:45AM 28.0500 -80.5500 156° South 106 122 3,600  Level Orlando TRACON
10:46AM 28.0167 -80.5333 156° South 106 122 3,600  Level Orlando TRACON
10:47AM 27.9950 -80.5250 161° South 105 121 3,600  Level Miami Center
10:48AM 27.9703 -80.5150 160° South 111 128 3,600  Level Miami Center
10:49AM 27.9414 -80.5044 162° South 105 121 3,600  Level Miami Center
10:50AM 27.9167 -80.4919 156° South 111 128 3,600 -60 Level Miami Center
10:51AM 27.8897 -80.4769 154° Southeast 111 128 3,500  Descending Miami Center
10:52AM 27.8631 -80.4644 157° South 111 128 3,600  Climbing Miami Center
10:53AM 27.8383 -80.4542 160° South 105 121 3,600 60 Level Miami Center
10:54AM 27.8092 -80.4439 163° South 105 121 3,800 300 Climbing Miami Center
10:55AM 27.7864 -80.4339 159° South 105 121 4,300 420 Climbing Miami Center
10:56AM 27.7639 -80.4214 154° Southeast 99 114 4,700 300 Climbing Miami Center
10:57AM 27.7411 -80.4089 154° Southeast 94 108 5,000 300 Climbing Miami Center
10:58AM 27.7186 -80.3989 159° South 94 108 5,400 300 Climbing Miami Center
10:59AM 27.6917 -80.3839 154° Southeast 94 108 5,600 120 Climbing Miami Center
11:00AM 27.6628 -80.3736 163° South 94 108 5,700 60 Climbing Miami Center
11:01AM 27.6358 -80.3683 170° South 104 120 5,800  Climbing Miami Center
11:02AM 27.6150 -80.3583 157° South 104 120 5,800  Level Miami Center
11:03AM 27.5903 -80.3481 160° South 104 120 5,800  Level Miami Center
11:04AM 27.5614 -80.3378 162° South 104 120 5,900 60 Climbing Miami Center
11:05AM 27.5344 -80.3300 166° South 104 120 6,000 60 Climbing Miami Center
11:06AM 27.5075 -80.3197 161° South 104 120 6,100  Climbing Miami Center
11:07AM 27.4847 -80.3097 159° South 104 120 6,100  Level Miami Center
11:08AM 27.4581 -80.2950 154° Southeast 104 120 6,100  Level Miami Center
11:09AM 27.4292 -80.2778 152° Southeast 104 120 6,100 -60 Level Miami Center
11:10AM 27.4003 -80.2650 159° South 110 127 6,000 -60 Descending Miami Center
11:11AM 27.3753 -80.2575 165° South 110 127 6,000 -240 Level Miami Center
11:12AM 27.3464 -80.2447 159° South 105 121 5,600 -600 Descending Miami Center
11:13AM 27.3153 -80.2369 167° South 105 121 4,800 -780 Descending Miami Center
11:14AM 27.2839 -80.2383 182° South 105 121 4,100 -720 Descending Miami Center
11:16AM 27.2423 -80.2508 195° South  Level FlightAware Approximate
11:23AM 27.0704 -80.2384 172° South  Level Estimated
11:24AM 27.0460 -80.2424 188° South  Level FlightAware Approximate
11:25AM 27.0217 -80.2464 188° South  Level FlightAware Approximate
11:26AM 26.9972 -80.2431 170° South  Level Estimated
11:27AM 26.9727 -80.2401 174° South  Level FlightAware Approximate
11:28AM 26.9483 -80.2372 174° South  Level FlightAware Approximate
11:29AM 26.9239 -80.2336 170° South  Level Estimated
11:30AM 26.8996 -80.2291 171° South  Level FlightAware Approximate
11:31AM 26.8753 -80.2245 171° South  Level FlightAware Approximate
11:32AM 26.8510 -80.2200 171° South  Level FlightAware Approximate